Time;durP1;ratioP1;P1;durP2;ratioP2;P2;SDS_P1;SDS_P2;PMS_P1;PMS_P2;Temp;Humidity;BMP_temperature;BMP_pressure;BME280_temperature;BME280_humidity;BME280_pressure;Samples;Min_cycle;Max_cycle;Signal;HPM_P1;HPM_P2
2022/01/19 00:00:33;;;;;;;5.53;5.13;;;;;;;;;;6204136;23;20016;-41
2022/01/19 00:02:58;;;;;;;5.68;5.10;;;;;;;;;;6207169;23;20087;-41
2022/01/19 00:05:23;;;;;;;5.97;5.18;;;;;;;;;;6206397;23;20040;-41
2022/01/19 00:07:49;;;;;;;6.57;6.05;;;;;;;;;;6207153;23;20501;-42
2022/01/19 00:10:19;;;;;;;5.93;5.43;;;;;;;;;;6206363;23;20022;-41
2022/01/19 00:12:45;;;;;;;6.00;5.55;;;;;;;;;;6207017;23;20427;-42
2022/01/19 00:15:11;;;;;;;6.07;5.55;;;;;;;;;;6206546;23;20025;-45
2022/01/19 00:17:36;;;;;;;6.03;4.97;;;;;;;;;;6207439;23;20015;-41
2022/01/19 00:20:01;;;;;;;5.70;5.20;;;;;;;;;;6206860;23;20025;-41
2022/01/19 00:22:27;;;;;;;5.82;5.22;;;;;;;;;;6205676;23;20008;-42
2022/01/19 00:24:53;;;;;;;5.55;5.05;;;;;;;;;;6206967;23;20016;-41
2022/01/19 00:27:18;;;;;;;6.22;5.70;;;;;;;;;;6206293;23;20012;-42
2022/01/19 00:29:43;;;;;;;7.78;5.93;;;;;;;;;;6207033;23;20075;-41
2022/01/19 00:32:08;;;;;;;7.38;5.93;;;;;;;;;;6207300;23;20451;-43
2022/01/19 00:34:34;;;;;;;6.22;5.72;;;;;;;;;;6206196;23;20035;-41
2022/01/19 00:36:59;;;;;;;6.63;5.97;;;;;;;;;;6207551;23;20023;-41
2022/01/19 00:39:29;;;;;;;7.93;7.13;;;;;;;;;;6205940;23;20087;-41
2022/01/19 00:41:55;;;;;;;7.75;6.90;;;;;;;;;;6207095;23;20516;-41
2022/01/19 00:44:20;;;;;;;6.80;6.10;;;;;;;;;;6206261;23;20092;-42
2022/01/19 00:46:45;;;;;;;7.45;6.07;;;;;;;;;;6207573;23;20194;-42
2022/01/19 00:49:11;;;;;;;7.32;6.57;;;;;;;;;;6206221;23;20083;-41
2022/01/19 00:51:36;;;;;;;9.05;7.13;;;;;;;;;;6206409;23;20029;-42
2022/01/19 00:54:01;;;;;;;9.00;7.47;;;;;;;;;;6208216;23;20357;-45
2022/01/19 00:56:27;;;;;;;7.95;6.95;;;;;;;;;;6208812;23;20021;-45
2022/01/19 00:58:52;;;;;;;7.65;6.93;;;;;;;;;;6208963;23;20005;-41
2022/01/19 01:01:17;;;;;;;8.27;7.57;;;;;;;;;;6208540;23;20025;-42
2022/01/19 01:03:43;;;;;;;8.48;7.60;;;;;;;;;;6208380;23;20008;-41
2022/01/19 01:06:08;;;;;;;7.85;7.15;;;;;;;;;;6208922;23;20323;-41
2022/01/19 01:08:33;;;;;;;8.05;7.30;;;;;;;;;;6207845;23;20319;-41
2022/01/19 01:10:59;;;;;;;8.55;7.38;;;;;;;;;;6209385;23;20805;-41
2022/01/19 01:15:25;;;;;;;8.52;7.32;;;;;;;;;;6207799;23;20087;-41
2022/01/19 01:16:30;;;;;;;7.60;6.80;;;;;;;;;;6207354;23;20013;-41
2022/01/19 01:18:56;;;;;;;8.45;7.60;;;;;;;;;;6209245;23;20009;-41
2022/01/19 01:21:21;;;;;;;7.55;6.78;;;;;;;;;;6207062;23;20120;-42
2022/01/19 01:23:47;;;;;;;10.30;7.80;;;;;;;;;;6208849;23;20036;-42
2022/01/19 01:26:12;;;;;;;8.20;7.20;;;;;;;;;;6207395;23;20066;-42
2022/01/19 01:28:37;;;;;;;8.88;8.00;;;;;;;;;;6209163;23;20019;-42
2022/01/19 01:31:04;;;;;;;8.35;7.53;;;;;;;;;;6208484;23;20051;-42
2022/01/19 01:33:29;;;;;;;8.77;7.88;;;;;;;;;;6208638;23;20012;-41
2022/01/19 01:35:55;;;;;;;7.10;6.40;;;;;;;;;;6208478;23;20001;-43
2022/01/19 01:38:20;;;;;;;7.30;6.60;;;;;;;;;;6208436;23;20025;-41
2022/01/19 01:40:45;;;;;;;9.10;7.40;;;;;;;;;;6208016;23;20017;-41
2022/01/19 01:43:11;;;;;;;7.28;6.68;;;;;;;;;;6208792;23;20153;-41
2022/01/19 01:45:40;;;;;;;7.65;6.95;;;;;;;;;;6208449;23;20055;-42
2022/01/19 01:53:26;;;;;;;7.40;6.80;;;;;;;;;;6207906;23;20132;-42
2022/01/19 01:56:03;;;;;;;7.57;6.88;;;;;;;;;;6208648;23;20078;-41
2022/01/19 01:58:29;;;;;;;9.35;7.85;;;;;;;;;;6207632;23;20751;-44
2022/01/19 02:00:55;;;;;;;8.35;7.60;;;;;;;;;;6208590;23;20012;-42
2022/01/19 02:03:21;;;;;;;8.27;7.57;;;;;;;;;;6207210;23;20437;-41
2022/01/19 02:06:07;;;;;;;8.65;7.75;;;;;;;;;;6208446;23;20023;-41
2022/01/19 02:08:39;;;;;;;8.35;7.63;;;;;;;;;;6207607;23;20104;-41
2022/01/19 02:24:12;;;;;;;10.07;7.75;;;;;;;;;;6208536;23;20016;-42
2022/01/19 02:42:34;;;;;;;7.78;7.03;;;;;;;;;;6205928;23;20086;-43
2022/01/19 02:49:51;;;;;;;7.95;7.20;;;;;;;;;;6208709;23;20012;-41
2022/01/19 02:52:17;;;;;;;7.93;6.55;;;;;;;;;;6206836;23;20094;-41
2022/01/19 02:54:42;;;;;;;7.72;6.65;;;;;;;;;;6208189;23;20039;-43
2022/01/19 02:57:11;;;;;;;6.97;6.05;;;;;;;;;;6207797;23;20009;-41
2022/01/19 03:10:32;;;;;;;7.65;6.85;;;;;;;;;;6209303;23;20339;-46
2022/01/19 03:12:57;;;;;;;6.82;6.22;;;;;;;;;;6208152;23;20502;-42
2022/01/19 03:15:22;;;;;;;7.50;6.80;;;;;;;;;;6208977;23;20450;-47
2022/01/19 03:17:47;;;;;;;10.10;6.78;;;;;;;;;;6207406;23;20020;-43
2022/01/19 03:20:13;;;;;;;8.70;6.72;;;;;;;;;;6207301;23;20020;-41
2022/01/19 03:22:46;;;;;;;9.02;7.88;;;;;;;;;;6207409;23;20013;-44
2022/01/19 03:25:13;;;;;;;7.68;6.90;;;;;;;;;;6207111;23;20117;-41
2022/01/19 03:27:39;;;;;;;9.60;7.22;;;;;;;;;;6207428;23;20009;-41
2022/01/19 03:30:05;;;;;;;7.88;7.00;;;;;;;;;;6206876;23;20013;-42
2022/01/19 03:32:30;;;;;;;6.75;6.10;;;;;;;;;;6207152;23;20005;-41
2022/01/19 03:34:56;;;;;;;8.98;6.65;;;;;;;;;;6207530;23;20019;-41
2022/01/19 03:37:21;;;;;;;7.55;6.38;;;;;;;;;;6206828;23;20040;-41
2022/01/19 03:39:46;;;;;;;7.90;7.18;;;;;;;;;;6207772;23;20370;-41
2022/01/19 03:42:12;;;;;;;7.95;7.03;;;;;;;;;;6206723;23;20042;-42
2022/01/19 03:44:37;;;;;;;8.10;6.35;;;;;;;;;;6207901;23;20012;-41
2022/01/19 03:47:04;;;;;;;7.78;6.88;;;;;;;;;;6206861;23;20797;-41
2022/01/19 03:49:33;;;;;;;9.02;7.15;;;;;;;;;;6206183;23;21229;-41
2022/01/19 03:52:00;;;;;;;7.88;7.18;;;;;;;;;;6206783;23;20021;-41
2022/01/19 03:54:26;;;;;;;8.57;7.40;;;;;;;;;;6206617;23;20039;-41
2022/01/19 03:56:52;;;;;;;10.45;7.40;;;;;;;;;;6207393;23;20055;-42
2022/01/19 03:59:17;;;;;;;10.43;8.15;;;;;;;;;;6206988;23;20013;-41
2022/01/19 04:01:43;;;;;;;8.30;7.50;;;;;;;;;;6206359;23;20020;-43
2022/01/19 04:09:46;;;;;;;7.05;6.38;;;;;;;;;;6120381;23;20001;-41
2022/01/19 04:12:15;;;;;;;6.78;6.07;;;;;;;;;;6202562;23;20019;-41
2022/01/19 04:14:40;;;;;;;7.15;6.35;;;;;;;;;;6206993;23;20040;-42
2022/01/19 04:17:10;;;;;;;7.20;6.50;;;;;;;;;;6207251;23;20012;-41
2022/01/19 04:22:03;;;;;;;8.30;6.28;;;;;;;;;;6208172;23;20442;-43
2022/01/19 04:24:29;;;;;;;6.05;5.50;;;;;;;;;;6205936;23;20059;-41
2022/01/19 04:29:39;;;;;;;8.27;6.07;;;;;;;;;;6186189;23;20015;-41
2022/01/19 04:32:11;;;;;;;6.63;5.88;;;;;;;;;;6210419;23;20012;-41
2022/01/19 04:34:40;;;;;;;6.30;5.60;;;;;;;;;;6209717;23;20015;-41
2022/01/19 04:45:48;;;;;;;6.70;5.45;;;;;;;;;;6209692;23;20020;-41
2022/01/19 05:06:45;;;;;;;5.47;4.97;;;;;;;;;;6209155;23;20008;-41
2022/01/19 05:14:35;;;;;;;4.78;4.28;;;;;;;;;;6209607;23;20066;-41
2022/01/19 05:17:00;;;;;;;6.32;4.97;;;;;;;;;;6210239;23;20012;-41
2022/01/19 05:19:25;;;;;;;4.80;4.28;;;;;;;;;;6209774;23;20071;-41
2022/01/19 05:21:50;;;;;;;5.43;4.93;;;;;;;;;;6209944;23;20031;-41
2022/01/19 05:24:16;;;;;;;4.70;4.30;;;;;;;;;;6207383;23;20067;-41
2022/01/19 05:26:41;;;;;;;5.90;4.75;;;;;;;;;;6207265;23;20009;-41
2022/01/19 05:29:06;;;;;;;5.75;5.25;;;;;;;;;;6208432;23;20065;-42
2022/01/19 05:31:32;;;;;;;6.80;5.60;;;;;;;;;;6206727;23;20012;-42
2022/01/19 05:33:57;;;;;;;5.57;5.10;;;;;;;;;;6207607;23;20023;-40
2022/01/19 05:36:22;;;;;;;5.18;4.68;;;;;;;;;;6207239;23;20220;-41
2022/01/19 05:38:47;;;;;;;5.50;5.10;;;;;;;;;;6205950;23;20020;-41
2022/01/19 05:41:13;;;;;;;4.93;4.50;;;;;;;;;;6205657;23;20127;-41
2022/01/19 05:43:38;;;;;;;7.03;4.97;;;;;;;;;;6205436;23;20017;-40
2022/01/19 05:46:03;;;;;;;5.80;5.20;;;;;;;;;;6206345;23;20004;-44
2022/01/19 05:48:29;;;;;;;4.72;4.38;;;;;;;;;;6204659;23;20083;-41
2022/01/19 05:50:54;;;;;;;4.85;4.45;;;;;;;;;;6205273;23;20086;-41
2022/01/19 05:53:19;;;;;;;4.82;4.38;;;;;;;;;;6204816;23;20099;-41
2022/01/19 05:55:45;;;;;;;5.63;4.90;;;;;;;;;;6206222;23;20058;-41
2022/01/19 05:58:10;;;;;;;4.80;4.40;;;;;;;;;;6178214;23;20097;-41
2022/01/19 06:00:36;;;;;;;5.95;5.45;;;;;;;;;;6205871;23;20031;-42
2022/01/19 06:03:01;;;;;;;5.00;4.60;;;;;;;;;;6205699;23;20008;-41
2022/01/19 06:05:26;;;;;;;5.15;4.65;;;;;;;;;;6205196;23;20017;-41
2022/01/19 06:08:08;;;;;;;5.47;4.70;;;;;;;;;;6206012;23;20012;-41
2022/01/19 06:10:43;;;;;;;4.78;4.25;;;;;;;;;;6205435;23;20024;-41
2022/01/19 06:13:08;;;;;;;4.95;3.80;;;;;;;;;;6205729;23;20058;-42
2022/01/19 06:15:34;;;;;;;4.70;4.40;;;;;;;;;;6205245;23;20012;-42
2022/01/19 06:17:59;;;;;;;5.60;4.60;;;;;;;;;;6206179;23;20075;-40
2022/01/19 06:20:24;;;;;;;4.07;3.70;;;;;;;;;;6206610;23;20124;-40
2022/01/19 06:22:49;;;;;;;4.50;4.10;;;;;;;;;;6207966;23;20005;-41
2022/01/19 06:25:15;;;;;;;4.43;4.03;;;;;;;;;;6206950;23;20017;-41
2022/01/19 06:27:40;;;;;;;4.10;3.80;;;;;;;;;;6208456;23;20009;-41
2022/01/19 06:30:06;;;;;;;4.78;4.38;;;;;;;;;;6207594;23;20043;-41
2022/01/19 06:32:31;;;;;;;5.90;4.85;;;;;;;;;;6207513;23;20008;-41
2022/01/19 06:34:56;;;;;;;4.85;4.30;;;;;;;;;;6207375;23;20075;-42
2022/01/19 06:37:21;;;;;;;5.25;4.82;;;;;;;;;;6207464;23;20016;-43
2022/01/19 06:39:47;;;;;;;4.80;4.35;;;;;;;;;;6208294;23;20013;-41
2022/01/19 06:42:12;;;;;;;5.30;4.85;;;;;;;;;;6207746;23;20025;-40
2022/01/19 06:44:37;;;;;;;5.22;4.82;;;;;;;;;;6208003;23;20451;-41
2022/01/19 06:47:03;;;;;;;4.88;4.47;;;;;;;;;;6207333;23;20389;-41
2022/01/19 06:49:28;;;;;;;4.30;4.00;;;;;;;;;;6206869;23;20017;-41
2022/01/19 06:51:53;;;;;;;4.43;4.05;;;;;;;;;;6207371;23;20458;-41
2022/01/19 06:54:18;;;;;;;3.83;3.60;;;;;;;;;;6207015;23;20047;-41
2022/01/19 06:56:44;;;;;;;5.15;4.00;;;;;;;;;;6207864;23;20016;-41
2022/01/19 06:59:09;;;;;;;4.18;3.88;;;;;;;;;;6207482;23;20052;-41
2022/01/19 07:01:34;;;;;;;4.22;3.92;;;;;;;;;;6207119;23;20044;-43
2022/01/19 07:04:00;;;;;;;3.88;3.58;;;;;;;;;;6207864;23;20048;-41
2022/01/19 07:06:25;;;;;;;4.43;4.05;;;;;;;;;;6206471;23;20017;-41
2022/01/19 07:08:51;;;;;;;4.90;4.20;;;;;;;;;;6206487;23;20013;-41
2022/01/19 07:11:16;;;;;;;4.70;4.30;;;;;;;;;;6206315;23;20008;-41
2022/01/19 07:13:41;;;;;;;5.35;4.38;;;;;;;;;;6207744;23;20019;-41
2022/01/19 07:16:06;;;;;;;4.88;4.38;;;;;;;;;;6207019;23;20017;-41
2022/01/19 07:18:32;;;;;;;4.85;4.45;;;;;;;;;;6207188;23;20074;-41
2022/01/19 07:20:57;;;;;;;8.80;5.00;;;;;;;;;;6207393;23;20166;-41
2022/01/19 07:23:22;;;;;;;4.70;4.28;;;;;;;;;;6207142;23;20016;-41
2022/01/19 07:25:48;;;;;;;5.18;4.78;;;;;;;;;;6206332;23;20016;-41
2022/01/19 07:28:13;;;;;;;4.88;4.47;;;;;;;;;;6207332;23;20024;-41
2022/01/19 07:30:38;;;;;;;4.63;4.32;;;;;;;;;;6207645;23;20818;-41
2022/01/19 07:33:04;;;;;;;5.10;4.47;;;;;;;;;;6207856;23;20060;-41
2022/01/19 07:35:29;;;;;;;4.88;4.38;;;;;;;;;;6206188;23;20763;-40
2022/01/19 07:37:55;;;;;;;5.03;4.63;;;;;;;;;;6206301;23;20088;-41
2022/01/19 07:40:20;;;;;;;4.90;4.50;;;;;;;;;;6206311;23;20027;-41
2022/01/19 07:42:45;;;;;;;6.10;4.45;;;;;;;;;;6205793;23;20005;-41
2022/01/19 07:45:11;;;;;;;4.13;3.67;;;;;;;;;;6179655;23;20335;-41
2022/01/19 07:47:36;;;;;;;4.45;4.05;;;;;;;;;;6207909;23;20013;-41
2022/01/19 07:50:02;;;;;;;4.57;4.28;;;;;;;;;;6206687;23;20504;-41
2022/01/19 07:52:27;;;;;;;4.68;4.28;;;;;;;;;;6207223;23;20008;-41
2022/01/19 07:54:53;;;;;;;4.53;4.13;;;;;;;;;;6207505;23;20008;-40
2022/01/19 07:57:18;;;;;;;3.95;3.72;;;;;;;;;;6207523;23;20012;-42
2022/01/19 07:59:43;;;;;;;4.40;4.00;;;;;;;;;;6206916;23;20404;-42
2022/01/19 08:02:11;;;;;;;4.32;3.95;;;;;;;;;;6209778;23;20023;-41
2022/01/19 08:04:36;;;;;;;4.55;4.18;;;;;;;;;;6209202;23;20058;-43
2022/01/19 08:07:02;;;;;;;4.35;3.95;;;;;;;;;;6210037;23;20058;-41
2022/01/19 08:09:27;;;;;;;4.90;4.30;;;;;;;;;;6208052;23;20005;-42
2022/01/19 08:11:52;;;;;;;5.07;4.68;;;;;;;;;;6209108;23;20001;-43
2022/01/19 08:14:18;;;;;;;4.20;3.80;;;;;;;;;;6207770;23;20044;-41
2022/01/19 08:16:44;;;;;;;4.32;4.03;;;;;;;;;;6208648;23;20012;-43
2022/01/19 08:19:09;;;;;;;4.80;3.67;;;;;;;;;;6206347;23;20031;-40
2022/01/19 08:21:34;;;;;;;4.20;3.90;;;;;;;;;;6207002;23;20020;-43
2022/01/19 08:23:59;;;;;;;4.25;3.95;;;;;;;;;;6206808;23;20009;-42
2022/01/19 08:26:25;;;;;;;4.18;3.80;;;;;;;;;;6206454;23;20012;-43
2022/01/19 08:28:50;;;;;;;3.92;3.60;;;;;;;;;;6207989;23;20005;-41
2022/01/19 08:31:15;;;;;;;3.60;3.30;;;;;;;;;;6179575;23;20048;-41
2022/01/19 08:33:41;;;;;;;3.55;3.25;;;;;;;;;;6207780;23;20009;-42
2022/01/19 08:36:06;;;;;;;3.85;3.55;;;;;;;;;;6207035;23;20095;-41
2022/01/19 08:38:32;;;;;;;4.55;3.63;;;;;;;;;;6206639;23;20017;-41
2022/01/19 08:40:58;;;;;;;4.28;3.10;;;;;;;;;;6206794;23;20033;-41
2022/01/19 08:43:23;;;;;;;3.78;3.47;;;;;;;;;;6206792;23;20092;-41
2022/01/19 08:45:48;;;;;;;3.20;3.00;;;;;;;;;;6206638;23;20447;-41
2022/01/19 08:48:13;;;;;;;3.75;3.38;;;;;;;;;;6206573;23;20009;-41
2022/01/19 08:50:39;;;;;;;3.67;3.38;;;;;;;;;;6206800;23;20024;-41
2022/01/19 08:53:04;;;;;;;4.40;4.10;;;;;;;;;;6206311;23;20434;-41
2022/01/19 08:55:29;;;;;;;4.00;2.97;;;;;;;;;;6204608;23;20447;-41
2022/01/19 08:57:54;;;;;;;3.20;3.00;;;;;;;;;;6205130;23;20004;-41
2022/01/19 09:00:20;;;;;;;3.20;3.00;;;;;;;;;;6203366;23;20024;-41
2022/01/19 09:02:45;;;;;;;4.43;4.03;;;;;;;;;;6204786;23;20418;-41
2022/01/19 09:05:11;;;;;;;4.40;3.97;;;;;;;;;;6204042;23;20394;-42
2022/01/19 09:07:37;;;;;;;3.42;3.13;;;;;;;;;;6204367;23;20031;-41
2022/01/19 09:10:03;;;;;;;3.45;3.22;;;;;;;;;;6203930;23;20028;-41
2022/01/19 09:12:28;;;;;;;4.43;3.10;;;;;;;;;;6204089;23;20013;-42
2022/01/19 09:14:53;;;;;;;3.35;3.13;;;;;;;;;;6206563;23;20023;-41
2022/01/19 09:17:19;;;;;;;3.90;3.60;;;;;;;;;;6204198;23;20067;-42
2022/01/19 09:19:44;;;;;;;3.80;3.50;;;;;;;;;;6199218;23;20083;-42
2022/01/19 09:22:10;;;;;;;3.55;3.25;;;;;;;;;;6202240;23;20469;-41
2022/01/19 09:24:39;;;;;;;3.75;3.45;;;;;;;;;;6202589;23;20013;-41
2022/01/19 09:27:05;;;;;;;2.70;2.50;;;;;;;;;;6204615;23;20016;-41
2022/01/19 09:29:30;;;;;;;3.88;3.10;;;;;;;;;;6202542;23;20013;-42
2022/01/19 09:31:57;;;;;;;3.05;2.80;;;;;;;;;;6204030;23;20009;-41
2022/01/19 09:34:22;;;;;;;3.78;3.47;;;;;;;;;;6203175;23;20071;-41
2022/01/19 09:36:48;;;;;;;3.55;3.35;;;;;;;;;;6205327;23;20012;-41
2022/01/19 09:39:18;;;;;;;3.33;3.03;;;;;;;;;;6203007;23;20008;-41
2022/01/19 09:41:45;;;;;;;;;;;;;;;;;;6203526;23;20021;-41
2022/01/19 09:44:10;;;;;;;3.20;3.00;;;;;;;;;;6203819;23;19904;-42
2022/01/19 09:46:35;;;;;;;3.67;3.33;;;;;;;;;;6203205;23;20566;-41
2022/01/19 09:49:01;;;;;;;3.40;3.13;;;;;;;;;;6203998;23;20036;-42
2022/01/19 09:51:27;;;;;;;4.78;3.42;;;;;;;;;;6202713;23;20032;-41
2022/01/19 09:53:52;;;;;;;3.70;3.40;;;;;;;;;;6204575;23;20008;-41
2022/01/19 09:56:20;;;;;;;3.72;3.40;;;;;;;;;;6203346;23;20087;-41
2022/01/19 09:58:46;;;;;;;3.13;2.92;;;;;;;;;;6203746;23;20013;-41
2022/01/19 10:01:15;;;;;;;4.28;3.92;;;;;;;;;;6203128;23;20039;-41
2022/01/19 10:03:40;;;;;;;4.10;3.80;;;;;;;;;;6204891;23;20009;-41
2022/01/19 10:06:09;;;;;;;3.90;3.60;;;;;;;;;;6203136;23;20023;-41
2022/01/19 10:08:45;;;;;;;4.10;3.70;;;;;;;;;;6179046;23;20042;-41
2022/01/19 10:11:12;;;;;;;3.85;3.55;;;;;;;;;;6203413;23;20017;-41
2022/01/19 10:19:14;;;;;;;5.97;3.78;;;;;;;;;;6204646;23;20552;-41
2022/01/19 10:21:54;;;;;;;3.88;3.53;;;;;;;;;;6203171;23;20096;-41
2022/01/19 10:24:31;;;;;;;4.32;4.03;;;;;;;;;;6203801;23;20067;-42
2022/01/19 10:27:15;;;;;;;3.95;3.60;;;;;;;;;;6204280;23;20016;-41
2022/01/19 10:29:41;;;;;;;4.10;3.80;;;;;;;;;;6203199;23;20017;-42
2022/01/19 10:32:07;;;;;;;4.20;3.80;;;;;;;;;;6203854;23;20076;-41
2022/01/19 10:34:33;;;;;;;4.30;4.00;;;;;;;;;;6202485;23;20927;-41
2022/01/19 10:37:02;;;;;;;4.13;3.72;;;;;;;;;;6204377;23;20048;-41
2022/01/19 10:39:46;;;;;;;4.17;3.77;;;;;;;;;;6200734;23;20025;-41
2022/01/19 10:42:18;;;;;;;6.07;4.30;;;;;;;;;;6202197;23;20016;-41
2022/01/19 10:44:44;;;;;;;4.10;3.80;;;;;;;;;;6177387;23;20001;-42
2022/01/19 10:47:10;;;;;;;4.10;3.80;;;;;;;;;;6202129;23;20020;-44
2022/01/19 10:49:49;;;;;;;4.35;3.95;;;;;;;;;;6204645;23;20009;-43
2022/01/19 10:52:26;;;;;;;4.68;4.15;;;;;;;;;;6201189;23;20075;-41
2022/01/19 10:54:51;;;;;;;4.15;3.53;;;;;;;;;;6203752;23;20027;-41
2022/01/19 10:57:17;;;;;;;3.88;3.58;;;;;;;;;;6202004;23;20005;-41
2022/01/19 10:59:42;;;;;;;3.50;3.30;;;;;;;;;;6204190;23;20061;-41
2022/01/19 11:02:09;;;;;;;3.83;3.42;;;;;;;;;;6202578;23;20028;-41
2022/01/19 11:04:39;;;;;;;3.85;3.55;;;;;;;;;;6203921;23;20512;-41
2022/01/19 11:07:07;;;;;;;3.70;3.42;;;;;;;;;;6202698;23;20012;-42
2022/01/19 11:09:34;;;;;;;4.30;4.00;;;;;;;;;;6202293;23;20063;-42
2022/01/19 11:12:03;;;;;;;3.95;3.65;;;;;;;;;;6202462;23;20019;-41
2022/01/19 11:14:28;;;;;;;3.60;3.30;;;;;;;;;;6175280;23;20012;-43
2022/01/19 11:16:54;;;;;;;3.78;3.47;;;;;;;;;;6201435;23;20470;-41
2022/01/19 11:19:19;;;;;;;4.32;3.92;;;;;;;;;;6200678;23;20012;-41
2022/01/19 11:22:04;;;;;;;4.22;3.92;;;;;;;;;;6200432;23;20083;-41
2022/01/19 11:24:50;;;;;;;3.42;3.13;;;;;;;;;;6201986;23;20008;-41
2022/01/19 11:27:15;;;;;;;4.22;3.20;;;;;;;;;;6185370;23;20072;-41
2022/01/19 11:29:40;;;;;;;3.38;3.15;;;;;;;;;;6202567;23;20035;-43
2022/01/19 11:32:13;;;;;;;7.00;3.55;;;;;;;;;;6202786;23;20024;-41
2022/01/19 11:34:39;;;;;;;4.30;3.90;;;;;;;;;;6202404;23;20013;-43
2022/01/19 11:37:05;;;;;;;6.53;3.33;;;;;;;;;;6201849;23;20491;-41
2022/01/19 11:39:30;;;;;;;4.22;3.50;;;;;;;;;;6202073;23;20009;-41
2022/01/19 11:41:57;;;;;;;4.30;3.90;;;;;;;;;;6202958;23;20443;-42
2022/01/19 11:44:41;;;;;;;4.13;3.83;;;;;;;;;;6201949;23;20041;-41
2022/01/19 11:47:09;;;;;;;4.13;3.83;;;;;;;;;;6202258;23;20017;-42
2022/01/19 11:49:55;;;;;;;3.92;3.53;;;;;;;;;;6201545;23;20442;-42
2022/01/19 11:52:22;;;;;;;4.10;3.70;;;;;;;;;;6201731;23;20031;-42
2022/01/19 11:54:48;;;;;;;4.93;3.47;;;;;;;;;;6202183;23;20334;-41
2022/01/19 11:57:18;;;;;;;4.90;4.45;;;;;;;;;;6175741;23;20071;-40
2022/01/19 11:59:43;;;;;;;4.88;3.85;;;;;;;;;;6155806;23;20005;-41
2022/01/19 12:02:21;;;;;;;4.88;4.30;;;;;;;;;;6197950;23;20512;-41
2022/01/19 12:04:58;;;;;;;4.72;4.05;;;;;;;;;;6202161;23;20013;-41
2022/01/19 12:07:38;;;;;;;4.80;4.10;;;;;;;;;;6202253;23;20650;-42
2022/01/19 12:10:04;;;;;;;4.68;4.28;;;;;;;;;;6202104;23;20012;-41
2022/01/19 12:12:34;;;;;;;4.80;4.40;;;;;;;;;;6201825;23;20039;-43
2022/01/19 12:15:04;;;;;;;;;;;;;;;;;;6200914;23;20009;-42
2022/01/19 12:17:52;;;;;;;4.68;4.38;;;;;;;;;;6202002;23;19908;-42
2022/01/19 12:20:36;;;;;;;4.43;4.10;;;;;;;;;;6199915;23;21052;-41
2022/01/19 12:23:20;;;;;;;6.32;4.07;;;;;;;;;;6199256;23;20012;-42
2022/01/19 12:25:51;;;;;;;4.68;4.10;;;;;;;;;;6199537;23;20075;-41
2022/01/19 12:28:36;;;;;;;3.90;3.58;;;;;;;;;;6198861;23;20013;-42
2022/01/19 12:31:21;;;;;;;4.78;4.38;;;;;;;;;;6199759;23;20021;-43
2022/01/19 12:34:02;;;;;;;5.10;4.60;;;;;;;;;;6201269;23;20008;-43
2022/01/19 12:36:43;;;;;;;6.10;4.35;;;;;;;;;;6201038;23;20024;-43
2022/01/19 12:39:27;;;;;;;4.47;4.07;;;;;;;;;;6200843;23;20016;-41
2022/01/19 12:41:55;;;;;;;5.53;4.00;;;;;;;;;;6179268;23;20029;-45
2022/01/19 12:44:35;;;;;;;4.47;4.05;;;;;;;;;;6200928;23;20427;-45
2022/01/19 12:47:04;;;;;;;4.25;3.85;;;;;;;;;;6200218;23;20017;-44
2022/01/19 12:49:31;;;;;;;4.50;4.20;;;;;;;;;;6201978;23;20499;-43
2022/01/19 12:51:57;;;;;;;4.95;4.45;;;;;;;;;;6201665;23;20103;-42
2022/01/19 12:54:26;;;;;;;4.90;4.50;;;;;;;;;;6201691;23;20099;-45
2022/01/19 12:56:56;;;;;;;4.80;3.58;;;;;;;;;;6200909;23;20048;-41
2022/01/19 12:59:22;;;;;;;4.10;3.78;;;;;;;;;;6200005;23;20031;-43
2022/01/19 13:01:47;;;;;;;3.78;3.58;;;;;;;;;;6203867;23;20017;-42
2022/01/19 13:04:48;;;;;;;3.70;3.35;;;;;;;;;;6202936;23;20012;-41
2022/01/19 13:07:24;;;;;;;4.35;4.05;;;;;;;;;;6154931;23;20463;-42
2022/01/19 13:10:08;;;;;;;2.83;2.55;;;;;;;;;;6203415;23;20004;-41
2022/01/19 13:12:47;;;;;;;2.63;2.42;;;;;;;;;;6204518;23;20009;-42
2022/01/19 13:15:13;;;;;;;2.40;2.30;;;;;;;;;;6177059;23;20042;-41
2022/01/19 13:17:39;;;;;;;2.05;1.95;;;;;;;;;;6202916;23;20012;-41
2022/01/19 13:20:12;;;;;;;1.60;1.50;;;;;;;;;;6203939;23;20028;-41
2022/01/19 13:22:45;;;;;;;1.50;1.40;;;;;;;;;;6203150;23;20012;-41
2022/01/19 13:25:15;;;;;;;0.90;0.90;;;;;;;;;;6204509;23;20427;-42
2022/01/19 13:27:44;;;;;;;0.95;0.95;;;;;;;;;;6203075;23;20011;-44
2022/01/19 13:30:12;;;;;;;1.23;1.10;;;;;;;;;;6203775;23;20018;-41
2022/01/19 13:32:39;;;;;;;1.53;0.63;;;;;;;;;;6204818;23;20443;-41
2022/01/19 13:35:04;;;;;;;1.00;0.70;;;;;;;;;;6203500;23;20513;-41
2022/01/19 13:37:34;;;;;;;1.80;1.00;;;;;;;;;;6203087;23;20017;-41
2022/01/19 13:40:04;;;;;;;1.52;0.70;;;;;;;;;;6204587;23;20019;-41
2022/01/19 13:42:39;;;;;;;0.88;0.60;;;;;;;;;;6203164;23;20017;-41
2022/01/19 13:45:10;;;;;;;1.95;0.63;;;;;;;;;;6204022;23;20492;-41
2022/01/19 13:47:55;;;;;;;0.68;0.52;;;;;;;;;;6203453;23;20430;-42
2022/01/19 13:50:21;;;;;;;0.65;0.52;;;;;;;;;;6202373;23;20020;-41
2022/01/19 13:52:47;;;;;;;0.90;0.70;;;;;;;;;;6205571;23;20012;-42
2022/01/19 13:55:16;;;;;;;0.60;0.60;;;;;;;;;;6202476;23;20401;-42
2022/01/19 13:57:41;;;;;;;0.35;0.35;;;;;;;;;;6203740;23;20012;-42
2022/01/19 14:00:08;;;;;;;0.60;0.50;;;;;;;;;;6203343;23;20021;-41
2022/01/19 14:02:33;;;;;;;1.38;0.63;;;;;;;;;;6203196;23;20016;-41
2022/01/19 14:05:01;;;;;;;0.90;0.70;;;;;;;;;;6203662;23;20016;-41
2022/01/19 14:07:26;;;;;;;0.75;0.50;;;;;;;;;;6203526;23;20521;-41
2022/01/19 14:09:51;;;;;;;0.98;0.70;;;;;;;;;;6202848;23;20017;-41
2022/01/19 14:12:19;;;;;;;1.95;0.50;;;;;;;;;;6203221;23;20047;-42
2022/01/19 14:14:47;;;;;;;0.70;0.68;;;;;;;;;;6203448;23;20409;-42
2022/01/19 14:17:22;;;;;;;0.40;0.30;;;;;;;;;;6203273;23;20032;-42
2022/01/19 14:19:48;;;;;;;1.13;0.65;;;;;;;;;;6203345;23;20008;-41
2022/01/19 14:22:23;;;;;;;0.82;0.43;;;;;;;;;;6203745;23;20016;-41
2022/01/19 14:24:48;;;;;;;1.50;0.55;;;;;;;;;;6204178;23;20009;-42
2022/01/19 14:27:31;;;;;;;0.70;0.70;;;;;;;;;;6202768;23;20009;-41
2022/01/19 14:29:56;;;;;;;1.02;0.75;;;;;;;;;;6202333;23;20100;-42
2022/01/19 14:32:35;;;;;;;1.92;0.68;;;;;;;;;;6203383;23;20395;-41
2022/01/19 14:35:00;;;;;;;1.08;0.57;;;;;;;;;;6204287;23;20835;-42
2022/01/19 14:37:26;;;;;;;2.30;0.45;;;;;;;;;;6203009;23;20892;-41
2022/01/19 14:39:54;;;;;;;0.35;0.30;;;;;;;;;;6202315;23;20015;-41
2022/01/19 14:42:25;;;;;;;1.80;0.63;;;;;;;;;;6201625;23;20059;-41
2022/01/19 14:44:59;;;;;;;0.70;0.65;;;;;;;;;;6203443;23;20013;-41
2022/01/19 14:47:37;;;;;;;1.15;0.50;;;;;;;;;;6201717;23;20056;-41
2022/01/19 14:50:21;;;;;;;0.80;0.65;;;;;;;;;;6201892;23;20021;-40
2022/01/19 14:52:49;;;;;;;0.82;0.45;;;;;;;;;;6202153;23;20020;-41
2022/01/19 14:55:15;;;;;;;1.58;0.63;;;;;;;;;;6201717;23;20079;-41
2022/01/19 14:57:40;;;;;;;0.88;0.50;;;;;;;;;;6203119;23;20028;-44
2022/01/19 15:00:06;;;;;;;0.63;0.20;;;;;;;;;;6199117;23;20013;-40
2022/01/19 15:02:31;;;;;;;0.77;0.65;;;;;;;;;;6201394;23;20036;-41
2022/01/19 15:04:57;;;;;;;1.05;0.65;;;;;;;;;;6202484;23;20016;-43
2022/01/19 15:07:22;;;;;;;1.00;0.40;;;;;;;;;;6201557;23;20013;-41
2022/01/19 15:09:47;;;;;;;1.55;0.68;;;;;;;;;;6203112;23;20023;-41
2022/01/19 15:12:12;;;;;;;1.80;0.50;;;;;;;;;;6200503;23;20013;-41
2022/01/19 15:14:40;;;;;;;2.60;0.65;;;;;;;;;;6203602;23;20378;-40
2022/01/19 15:17:08;;;;;;;1.33;0.55;;;;;;;;;;6202398;23;20626;-41
2022/01/19 15:19:33;;;;;;;1.90;0.52;;;;;;;;;;6202093;23;20032;-41
2022/01/19 15:21:58;;;;;;;0.50;0.47;;;;;;;;;;6201959;23;20078;-41
2022/01/19 15:24:23;;;;;;;1.42;0.60;;;;;;;;;;6150326;23;20013;-41
2022/01/19 15:26:49;;;;;;;1.05;0.60;;;;;;;;;;6202797;23;20023;-40
2022/01/19 15:29:14;;;;;;;3.15;0.73;;;;;;;;;;6202754;23;20009;-41
2022/01/19 15:31:39;;;;;;;1.38;0.43;;;;;;;;;;6201319;23;20071;-41
2022/01/19 15:34:05;;;;;;;1.33;0.60;;;;;;;;;;6203160;23;20776;-41
2022/01/19 15:36:30;;;;;;;2.53;0.70;;;;;;;;;;6201635;23;20012;-41
2022/01/19 15:38:56;;;;;;;1.13;0.82;;;;;;;;;;6202515;23;20004;-41
2022/01/19 15:41:22;;;;;;;1.20;0.50;;;;;;;;;;6201795;23;20078;-42
2022/01/19 15:43:47;;;;;;;2.22;0.90;;;;;;;;;;6202373;23;20016;-41
2022/01/19 15:46:13;;;;;;;2.17;0.80;;;;;;;;;;6202926;23;20086;-41
2022/01/19 15:48:38;;;;;;;3.03;0.73;;;;;;;;;;6202398;23;20007;-41
2022/01/19 15:51:03;;;;;;;1.27;0.60;;;;;;;;;;6202366;23;20196;-42
2022/01/19 15:53:30;;;;;;;1.88;0.80;;;;;;;;;;6200892;23;20430;-41
2022/01/19 15:55:56;;;;;;;2.20;0.90;;;;;;;;;;6202354;23;20446;-41
2022/01/19 15:58:22;;;;;;;0.73;0.73;;;;;;;;;;6201948;23;20039;-41
2022/01/19 16:00:48;;;;;;;3.50;1.08;;;;;;;;;;6201608;23;20023;-40
2022/01/19 16:03:13;;;;;;;2.20;0.80;;;;;;;;;;6201866;23;20388;-40
2022/01/19 16:05:39;;;;;;;1.52;0.82;;;;;;;;;;6202526;23;20009;-41
2022/01/19 16:08:05;;;;;;;1.30;0.85;;;;;;;;;;6202122;23;20043;-42
2022/01/19 16:10:30;;;;;;;0.45;0.45;;;;;;;;;;6201998;23;20016;-40
2022/01/19 16:12:56;;;;;;;2.13;1.05;;;;;;;;;;6201520;23;20016;-41
2022/01/19 16:15:21;;;;;;;1.08;0.85;;;;;;;;;;6202785;23;20027;-41
2022/01/19 16:17:47;;;;;;;3.67;1.10;;;;;;;;;;6201834;23;20392;-42
2022/01/19 16:20:13;;;;;;;1.23;0.90;;;;;;;;;;6201050;23;20055;-40
2022/01/19 16:28:06;;;;;;;0.85;0.57;;;;;;;;;;6201734;23;20027;-40
2022/01/19 16:30:32;;;;;;;1.42;0.85;;;;;;;;;;6201184;23;20017;-41